createdAt,value
2023-01-18T00:04:38.527Z,23.58
2023-01-18T00:09:40.103Z,28.48
2023-01-18T00:14:41.693Z,23.45
2023-01-18T00:19:43.415Z,26.35
2023-01-18T00:24:44.952Z,27.27
2023-01-18T00:29:46.460Z,27.38
2023-01-18T00:34:50.384Z,32.05
2023-01-18T00:39:52.051Z,27.25
2023-01-18T00:44:53.611Z,26.10
2023-01-18T00:49:55.243Z,29.42
2023-01-18T00:54:56.844Z,36.72
2023-01-18T00:59:58.351Z,28.88
2023-01-18T01:05:00.318Z,22.02
2023-01-18T01:10:01.844Z,34.47
2023-01-18T01:15:03.685Z,32.97
2023-01-18T01:20:05.939Z,25.05
2023-01-18T01:25:07.967Z,25.15
2023-01-18T01:30:09.984Z,31.58
2023-01-18T01:35:11.568Z,28.55
2023-01-18T01:40:13.111Z,31.60
2023-01-18T01:45:14.655Z,24.83
2023-01-18T01:50:31.560Z,27.67
2023-01-18T02:00:36.960Z,30.50
2023-01-18T02:05:45.302Z,22.60
2023-01-18T02:10:46.847Z,30.38
2023-01-18T02:16:10.135Z,32.50
2023-01-18T02:21:16.510Z,33.28
2023-01-18T02:26:29.117Z,23.50
2023-01-18T02:31:37.357Z,23.95
2023-01-18T02:36:44.805Z,28.80
2023-01-18T02:41:51.726Z,29.20
2023-01-18T02:46:53.252Z,21.88
2023-01-18T02:52:06.829Z,36.92
2023-01-18T02:57:15.192Z,29.45
2023-01-18T03:02:19.340Z,35.13
2023-01-18T03:07:26.943Z,32.95
2023-01-18T03:12:56.563Z,41.58
2023-01-18T03:18:06.403Z,38.63
2023-01-18T03:23:17.590Z,38.42
2023-01-18T03:28:25.561Z,31.23
2023-01-18T03:33:31.290Z,32.63
2023-01-18T03:38:34.753Z,28.77
2023-01-18T03:43:37.319Z,30.98
2023-01-18T03:48:38.953Z,33.33
2023-01-18T03:54:04.493Z,30.60
2023-01-18T03:59:07.805Z,27.55
2023-01-18T04:04:09.316Z,29.00
2023-01-18T04:09:11.447Z,34.05
2023-01-18T04:14:12.961Z,41.00
2023-01-18T04:19:14.454Z,36.15
2023-01-18T04:24:16.080Z,35.58
2023-01-18T04:29:17.629Z,38.78
2023-01-18T04:34:19.191Z,31.90
2023-01-18T04:39:20.845Z,28.70
2023-01-18T04:44:22.449Z,28.38
2023-01-18T04:49:23.987Z,44.53
2023-01-18T04:54:25.564Z,36.22
2023-01-18T04:59:27.097Z,45.75
2023-01-18T05:04:28.664Z,40.33
2023-01-18T05:09:30.264Z,36.78
2023-01-18T05:14:31.799Z,36.03
2023-01-18T05:19:33.619Z,35.67
2023-01-18T05:24:35.165Z,34.03
2023-01-18T05:29:36.749Z,31.73
2023-01-18T05:34:38.371Z,37.75
2023-01-18T05:39:39.940Z,41.85
2023-01-18T05:44:41.672Z,41.97
2023-01-18T05:49:43.225Z,46.20
2023-01-18T05:54:44.781Z,38.90
2023-01-18T05:59:46.287Z,38.03
2023-01-18T06:04:47.850Z,36.22
2023-01-18T06:09:49.509Z,36.80
2023-01-18T06:14:51.215Z,41.75
2023-01-18T06:19:52.796Z,52.00
2023-01-18T06:24:54.333Z,36.83
2023-01-18T06:29:55.843Z,51.45
2023-01-18T06:34:57.425Z,39.47
2023-01-18T06:40:00.220Z,39.63
2023-01-18T06:45:03.323Z,38.83
2023-01-18T06:50:05.293Z,40.95
2023-01-18T06:55:07.082Z,41.33
2023-01-18T07:00:09.702Z,45.17
2023-01-18T07:05:11.307Z,38.33
2023-01-18T07:10:15.440Z,43.72
2023-01-18T07:15:22.717Z,41.05
2023-01-18T07:20:24.865Z,41.22
2023-01-18T07:25:26.512Z,41.15
2023-01-18T07:30:28.341Z,49.85
2023-01-18T07:35:30.149Z,43.63
2023-01-18T07:40:31.844Z,41.25
2023-01-18T07:45:33.419Z,39.45
2023-01-18T07:50:34.949Z,45.15
2023-01-18T07:55:36.504Z,47.20
2023-01-18T08:00:38.063Z,49.75
2023-01-18T08:05:39.787Z,43.38
2023-01-18T08:10:42.416Z,57.92
2023-01-18T08:15:44.105Z,57.20
2023-01-18T08:20:46.966Z,54.17
2023-01-18T08:25:48.582Z,59.42
2023-01-18T08:30:50.290Z,63.95
2023-01-18T08:35:51.858Z,76.47
2023-01-18T08:40:53.513Z,62.05
2023-01-18T08:45:55.046Z,73.55
2023-01-18T08:51:01.196Z,66.82
2023-01-18T08:56:06.433Z,70.70
2023-01-18T09:01:08.939Z,83.22
2023-01-18T09:06:12.986Z,78.97
2023-01-18T09:11:15.868Z,70.53
2023-01-18T09:16:17.418Z,75.55
2023-01-18T09:21:18.996Z,65.95
2023-01-18T09:26:20.630Z,72.45
2023-01-18T09:31:24.797Z,70.63
2023-01-18T09:36:26.857Z,59.78
2023-01-18T09:41:37.441Z,65.65
2023-01-18T09:46:41.947Z,72.93
2023-01-18T09:52:05.192Z,69.18
2023-01-18T09:57:20.859Z,58.88
2023-01-18T10:02:29.352Z,49.95
2023-01-18T10:07:35.816Z,54.38
2023-01-18T10:13:21.397Z,49.60
2023-01-18T10:18:26.008Z,39.88
2023-01-18T10:23:34.673Z,39.90
2023-01-18T10:28:42.131Z,38.17
2023-01-18T10:33:44.695Z,42.03
2023-01-18T10:38:48.693Z,37.85
2023-01-18T10:43:50.328Z,41.20
2023-01-18T10:48:54.201Z,33.13
2023-01-18T10:53:56.114Z,38.17
2023-01-18T10:58:59.797Z,27.10
2023-01-18T11:04:04.735Z,26.30
2023-01-18T11:09:41.304Z,24.92
2023-01-18T11:14:43.372Z,19.23
2023-01-18T11:19:45.002Z,21.00
2023-01-18T11:24:52.531Z,17.98
2023-01-18T11:29:54.252Z,17.20
2023-01-18T11:34:59.787Z,16.48
2023-01-18T11:40:19.956Z,16.48
2023-01-18T11:45:40.746Z,20.08
2023-01-18T11:50:51.553Z,13.90
2023-01-18T11:55:58.302Z,15.85
2023-01-18T12:06:39.117Z,13.20
2023-01-18T12:12:17.375Z,13.95
2023-01-18T12:17:25.747Z,15.63
2023-01-18T12:22:58.233Z,11.98
2023-01-18T12:28:08.054Z,13.23
2023-01-18T12:33:17.869Z,15.70
2023-01-18T12:38:27.819Z,13.85
2023-01-18T12:43:44.252Z,11.30
2023-01-18T12:48:52.953Z,12.35
2023-01-18T12:54:06.850Z,11.20
2023-01-18T12:59:18.226Z,6.97
2023-01-18T13:04:26.191Z,5.35
2023-01-18T13:09:33.040Z,5.30
2023-01-18T13:15:09.124Z,5.13
2023-01-18T13:20:25.272Z,7.03
2023-01-18T13:25:45.539Z,6.37
2023-01-18T13:30:53.970Z,5.95
2023-01-18T13:36:13.293Z,7.00
2023-01-18T13:41:21.387Z,6.25
2023-01-18T13:46:25.658Z,5.22
2023-01-18T13:51:39.107Z,5.57
2023-01-18T13:56:41.072Z,5.80
2023-01-18T14:01:45.944Z,6.10
2023-01-18T14:06:49.440Z,8.32
2023-01-18T14:11:55.427Z,5.63
2023-01-18T14:17:05.717Z,5.10
2023-01-18T14:22:33.479Z,4.68
2023-01-18T14:27:42.948Z,4.30
2023-01-18T14:33:02.132Z,5.30
2023-01-18T14:38:16.787Z,4.40
2023-01-18T14:43:30.070Z,5.57
2023-01-18T14:48:34.668Z,7.43
2023-01-18T14:53:45.982Z,6.43
2023-01-18T14:58:51.884Z,5.45
2023-01-18T15:03:55.258Z,6.10
2023-01-18T15:08:56.963Z,5.55
2023-01-18T15:13:58.954Z,5.13
2023-01-18T15:19:01.013Z,6.03
2023-01-18T15:24:09.228Z,6.72
2023-01-18T15:29:19.767Z,5.13
2023-01-18T15:34:33.407Z,5.85
2023-01-18T15:39:35.051Z,5.45
2023-01-18T15:44:52.351Z,6.20
2023-01-18T15:50:00.314Z,5.55
2023-01-18T15:55:07.318Z,6.13
2023-01-18T16:00:26.480Z,10.27
2023-01-18T16:05:28.247Z,6.50
2023-01-18T16:10:30.020Z,9.50
2023-01-18T16:15:31.729Z,7.20
2023-01-18T16:20:35.356Z,5.88
2023-01-18T16:25:37.448Z,5.93
2023-01-18T16:30:40.307Z,4.65
2023-01-18T16:35:41.982Z,4.57
2023-01-18T16:40:46.071Z,10.73
2023-01-18T16:45:49.896Z,8.38
2023-01-18T16:50:51.974Z,6.85
2023-01-18T16:55:53.750Z,8.00
2023-01-18T17:01:11.939Z,7.07
2023-01-18T17:06:19.600Z,11.40
2023-01-18T17:11:21.094Z,10.27
2023-01-18T17:16:22.948Z,11.48
2023-01-18T17:21:24.546Z,9.82
2023-01-18T17:26:26.158Z,9.20
2023-01-18T17:31:28.755Z,11.43
2023-01-18T17:36:30.328Z,14.35
2023-01-18T17:41:32.144Z,17.90
2023-01-18T17:46:34.174Z,12.98
2023-01-18T17:51:35.799Z,11.52
2023-01-18T17:56:37.341Z,11.63
2023-01-18T18:01:38.978Z,14.55
2023-01-18T18:06:49.744Z,15.00
2023-01-18T18:11:56.821Z,12.17
2023-01-18T18:16:58.447Z,11.23
2023-01-18T18:22:01.068Z,11.93
2023-01-18T18:27:03.061Z,17.60
2023-01-18T18:32:05.070Z,15.38
2023-01-18T18:37:07.156Z,14.90
2023-01-18T18:42:08.724Z,14.13
2023-01-18T18:47:10.247Z,21.05
2023-01-18T18:52:12.044Z,20.77
2023-01-18T18:57:13.791Z,16.40
2023-01-18T19:02:16.394Z,16.98
2023-01-18T19:07:18.070Z,11.55
2023-01-18T19:12:19.658Z,14.55
2023-01-18T19:17:29.855Z,15.13
2023-01-18T19:22:32.266Z,18.08
2023-01-18T19:27:34.145Z,16.17
2023-01-18T19:32:36.220Z,15.73
2023-01-18T19:37:37.842Z,12.90
2023-01-18T19:42:39.855Z,14.18
2023-01-18T19:47:41.576Z,13.18
2023-01-18T19:52:43.205Z,15.35
2023-01-18T19:57:44.838Z,15.00
2023-01-18T20:02:46.558Z,16.20
2023-01-18T20:07:48.268Z,14.10
2023-01-18T20:12:50.150Z,23.13
2023-01-18T20:17:51.793Z,17.65
2023-01-18T20:22:53.578Z,16.30
2023-01-18T20:27:55.280Z,15.07
2023-01-18T20:32:57.196Z,16.48
2023-01-18T20:37:58.927Z,13.77
2023-01-18T20:43:01.682Z,16.83
2023-01-18T20:48:04.047Z,16.20
2023-01-18T20:53:05.654Z,12.48
2023-01-18T20:58:07.273Z,13.13
2023-01-18T21:03:13.343Z,19.23
2023-01-18T21:08:15.123Z,9.02
2023-01-18T21:13:19.663Z,11.93
2023-01-18T21:18:22.035Z,13.57
2023-01-18T21:23:24.713Z,14.93
2023-01-18T21:28:26.617Z,14.15
2023-01-18T21:33:28.410Z,14.73
2023-01-18T21:38:29.957Z,11.65
2023-01-18T21:43:31.564Z,16.92
2023-01-18T21:48:33.451Z,14.95
2023-01-18T21:53:35.287Z,13.93
2023-01-18T21:58:36.825Z,11.27
2023-01-18T22:03:38.359Z,12.50
2023-01-18T22:08:40.045Z,9.13
2023-01-18T22:13:41.710Z,14.07
2023-01-18T22:18:43.316Z,14.95
2023-01-18T22:23:48.196Z,18.02
2023-01-18T22:28:50.717Z,12.65
2023-01-18T22:33:52.347Z,16.92
2023-01-18T22:38:54.228Z,17.35
2023-01-18T22:43:56.275Z,16.70
2023-01-18T22:48:58.678Z,18.73
2023-01-18T22:54:00.169Z,14.23
2023-01-18T22:59:01.769Z,14.45
2023-01-18T23:04:04.258Z,12.00
2023-01-18T23:09:05.968Z,14.60
2023-01-18T23:14:07.784Z,14.30
2023-01-18T23:19:09.367Z,10.75
2023-01-18T23:24:11.059Z,12.80
2023-01-18T23:29:12.678Z,14.15
2023-01-18T23:34:14.243Z,10.95
2023-01-18T23:39:15.819Z,12.90
2023-01-18T23:44:17.580Z,19.05
2023-01-18T23:49:19.127Z,15.68
2023-01-18T23:54:20.740Z,13.77
2023-01-18T23:59:22.340Z,12.48
